createdAt,value
2018-03-01T00:00:16.786Z,0.00
2018-03-01T00:01:16.380Z,0.00
2018-03-01T00:02:15.576Z,0.00
2018-03-01T00:03:15.873Z,0.00
2018-03-01T00:04:16.592Z,0.00
2018-03-01T00:05:15.987Z,0.00
2018-03-01T00:06:16.399Z,0.00
2018-03-01T00:07:15.872Z,0.00
2018-03-01T00:08:15.316Z,0.00
2018-03-01T00:09:15.747Z,0.00
2018-03-01T00:10:14.724Z,0.00
2018-03-01T00:11:14.689Z,0.00
2018-03-01T00:12:14.417Z,0.00
2018-03-01T00:13:14.182Z,0.00
2018-03-01T00:14:14.114Z,0.00
2018-03-01T00:15:14.086Z,0.00
2018-03-01T00:16:14.054Z,0.00
2018-03-01T00:17:13.997Z,0.00
2018-03-01T00:18:13.994Z,0.00
2018-03-01T00:19:13.924Z,0.00
2018-03-01T00:20:13.953Z,0.00
2018-03-01T00:21:13.871Z,0.00
2018-03-01T00:22:13.824Z,0.00
2018-03-01T00:23:13.805Z,0.00
2018-03-01T00:24:13.789Z,0.00
2018-03-01T00:25:13.716Z,0.00
2018-03-01T00:26:13.675Z,0.00
2018-03-01T00:27:13.635Z,0.00
2018-03-01T00:28:13.596Z,0.00
2018-03-01T00:29:13.592Z,0.00
2018-03-01T00:30:13.522Z,0.00
2018-03-01T00:31:13.483Z,0.00
2018-03-01T00:32:13.533Z,0.00
2018-03-01T00:33:13.426Z,0.00
2018-03-01T00:34:13.366Z,0.00
2018-03-01T00:35:13.328Z,0.00
2018-03-01T00:36:13.298Z,0.00
2018-03-01T00:37:13.259Z,0.00
2018-03-01T00:38:13.260Z,0.00
2018-03-01T00:39:13.256Z,0.00
2018-03-01T00:40:13.142Z,0.00
2018-03-01T00:41:13.117Z,0.00
2018-03-01T00:42:13.073Z,0.00
2018-03-01T00:43:13.086Z,0.00
2018-03-01T00:44:13.004Z,0.00
2018-03-01T00:45:12.957Z,0.00
2018-03-01T00:46:12.985Z,0.00
2018-03-01T00:47:12.891Z,0.00
2018-03-01T00:48:12.854Z,0.00
2018-03-01T00:49:12.813Z,0.00
2018-03-01T00:50:12.775Z,0.00
2018-03-01T00:51:12.753Z,0.00
2018-03-01T00:52:12.707Z,0.00
2018-03-01T00:53:12.666Z,0.00
2018-03-01T00:54:12.629Z,0.00
2018-03-01T00:55:12.606Z,0.00
2018-03-01T00:56:12.556Z,0.00
2018-03-01T00:57:12.543Z,0.00
2018-03-01T00:58:12.483Z,0.00
2018-03-01T00:59:12.444Z,0.00
2018-03-01T01:00:12.411Z,0.00
2018-03-01T01:01:12.369Z,0.00
2018-03-01T01:02:12.330Z,0.00
2018-03-01T01:03:12.292Z,0.00
2018-03-01T01:04:12.258Z,0.00
2018-03-01T01:05:12.220Z,0.00
2018-03-01T01:06:12.258Z,0.00
2018-03-01T01:07:12.143Z,0.00
2018-03-01T01:08:12.107Z,0.00
2018-03-01T01:09:12.070Z,0.00
2018-03-01T01:10:12.032Z,0.00
2018-03-01T01:11:12.011Z,0.00
2018-03-01T01:12:11.962Z,0.00
2018-03-01T01:13:11.915Z,0.00
2018-03-01T01:14:11.877Z,0.00
2018-03-01T01:15:11.846Z,0.00
2018-03-01T01:16:11.806Z,0.00
2018-03-01T01:17:11.799Z,0.00
2018-03-01T01:18:11.740Z,0.00
2018-03-01T01:19:11.693Z,0.00
2018-03-01T01:20:11.655Z,0.00
2018-03-01T01:21:11.625Z,0.00
2018-03-01T01:22:11.608Z,0.00
2018-03-01T01:23:11.583Z,0.00
2018-03-01T01:24:11.519Z,0.00
2018-03-01T01:25:11.576Z,0.00
2018-03-01T01:26:11.438Z,0.00
2018-03-01T01:27:11.414Z,0.00
2018-03-01T01:28:11.371Z,0.00
2018-03-01T01:29:11.339Z,0.00
2018-03-01T01:30:11.287Z,0.00
2018-03-01T01:31:11.295Z,0.00
2018-03-01T01:32:11.216Z,0.00
2018-03-01T01:33:11.171Z,0.00
2018-03-01T01:34:11.185Z,0.00
2018-03-01T01:35:11.113Z,0.00
2018-03-01T01:36:11.068Z,0.00
2018-03-01T01:37:11.094Z,0.00
2018-03-01T01:38:11.047Z,0.00
2018-03-01T01:39:10.954Z,0.00
2018-03-01T01:40:10.918Z,0.00
2018-03-01T01:41:10.915Z,0.00
2018-03-01T01:42:10.842Z,0.00
2018-03-01T01:43:10.814Z,0.00
2018-03-01T01:44:10.849Z,0.00
2018-03-01T01:45:10.732Z,0.00
2018-03-01T01:46:10.712Z,0.00
2018-03-01T01:47:10.654Z,0.00
2018-03-01T01:48:10.682Z,0.00
2018-03-01T01:49:10.584Z,0.00
2018-03-01T01:50:10.622Z,0.00
2018-03-01T01:51:10.506Z,0.00
2018-03-01T01:52:10.469Z,0.00
2018-03-01T01:53:10.429Z,0.00
2018-03-01T01:54:10.389Z,0.00
2018-03-01T01:55:10.402Z,0.00
2018-03-01T01:56:10.324Z,0.00
2018-03-01T01:57:10.319Z,0.00
2018-03-01T01:58:10.240Z,0.00
2018-03-01T01:59:10.211Z,0.00
2018-03-01T02:00:10.169Z,0.00
2018-03-01T02:01:10.136Z,0.00
2018-03-01T02:02:10.183Z,0.00
2018-03-01T02:03:10.062Z,0.00
2018-03-01T02:04:10.073Z,0.00
2018-03-01T02:05:09.998Z,0.00
2018-03-01T02:06:10.016Z,0.00
2018-03-01T02:07:09.918Z,0.00
2018-03-01T02:08:09.871Z,0.00
2018-03-01T02:09:09.853Z,0.00
2018-03-01T02:10:09.800Z,0.00
2018-03-01T02:11:09.893Z,0.00
2018-03-01T02:12:09.728Z,0.00
2018-03-01T02:13:09.685Z,0.00
2018-03-01T02:14:09.697Z,0.00
2018-03-01T02:15:09.609Z,0.00
2018-03-01T02:16:09.572Z,0.00
2018-03-01T02:17:09.545Z,0.00
2018-03-01T02:18:09.535Z,0.00
2018-03-01T02:19:09.467Z,0.00
2018-03-01T02:20:09.427Z,0.00
2018-03-01T02:21:09.387Z,0.00
2018-03-01T02:22:09.360Z,0.00
2018-03-01T02:23:09.319Z,0.00
2018-03-01T02:24:09.279Z,0.00
2018-03-01T02:25:09.236Z,0.00
2018-03-01T02:26:09.235Z,0.00
2018-03-01T02:27:09.168Z,0.00
2018-03-01T02:28:09.184Z,0.00
2018-03-01T02:29:09.115Z,0.00
2018-03-01T02:30:09.045Z,0.00
2018-03-01T02:31:09.013Z,0.00
2018-03-01T02:32:09.017Z,0.00
2018-03-01T02:33:08.946Z,0.00
2018-03-01T02:34:08.902Z,0.00
2018-03-01T02:35:08.864Z,0.00
2018-03-01T02:36:08.830Z,0.00
2018-03-01T02:37:08.795Z,0.00
2018-03-01T02:38:08.750Z,0.00
2018-03-01T02:39:08.714Z,0.00
2018-03-01T02:40:08.678Z,0.00
2018-03-01T02:41:08.646Z,0.00
2018-03-01T02:42:08.598Z,0.00
2018-03-01T02:43:08.564Z,0.00
2018-03-01T02:44:08.532Z,0.00
2018-03-01T02:45:08.487Z,0.00
2018-03-01T02:46:08.452Z,0.00
2018-03-01T02:47:08.414Z,0.00
2018-03-01T02:48:08.374Z,0.00
2018-03-01T02:49:08.342Z,0.00
2018-03-01T02:50:08.304Z,0.00
2018-03-01T02:51:08.292Z,0.00
2018-03-01T02:52:08.229Z,0.00
2018-03-01T02:53:08.194Z,0.00
2018-03-01T02:54:08.189Z,0.00
2018-03-01T02:55:08.115Z,0.00
2018-03-01T02:56:08.075Z,0.00
2018-03-01T02:57:08.044Z,0.00
2018-03-01T02:58:08.005Z,0.00
2018-03-01T02:59:07.964Z,0.00
2018-03-01T03:00:07.929Z,0.00
2018-03-01T03:01:07.889Z,0.00
2018-03-01T03:02:07.854Z,0.00
2018-03-01T03:03:07.818Z,0.00
2018-03-01T03:04:07.780Z,0.00
2018-03-01T03:05:07.739Z,0.00
2018-03-01T03:06:07.707Z,0.00
2018-03-01T03:07:07.660Z,0.00
2018-03-01T03:08:07.628Z,0.00
2018-03-01T03:09:07.616Z,0.00
2018-03-01T03:10:07.551Z,0.00
2018-03-01T03:11:07.551Z,0.00
2018-03-01T03:12:07.483Z,0.00
2018-03-01T03:13:07.464Z,0.00
2018-03-01T03:14:07.417Z,0.00
2018-03-01T03:15:07.371Z,0.00
2018-03-01T03:16:07.329Z,0.00
2018-03-01T03:17:07.335Z,0.00
2018-03-01T03:18:07.259Z,0.00
2018-03-01T03:19:07.221Z,0.00
2018-03-01T03:20:07.191Z,0.00
2018-03-01T03:21:07.138Z,0.00
2018-03-01T03:22:07.101Z,0.00
2018-03-01T03:23:07.065Z,0.00
2018-03-01T03:24:07.064Z,0.00
2018-03-01T03:25:06.995Z,0.00
2018-03-01T03:26:06.958Z,0.00
2018-03-01T03:27:06.928Z,0.00
2018-03-01T03:28:06.986Z,0.00
2018-03-01T03:29:06.877Z,0.00
2018-03-01T03:30:06.819Z,0.00
2018-03-01T03:31:06.781Z,0.00
2018-03-01T03:32:06.734Z,0.00
2018-03-01T03:33:06.694Z,0.00
2018-03-01T03:34:06.775Z,0.00
2018-03-01T03:35:06.627Z,0.00
2018-03-01T03:36:06.585Z,0.00
2018-03-01T03:37:06.545Z,0.00
2018-03-01T03:38:06.558Z,0.00
2018-03-01T03:39:06.486Z,0.00
2018-03-01T03:40:06.429Z,0.00
2018-03-01T03:41:06.395Z,0.00
2018-03-01T03:42:06.352Z,0.00
2018-03-01T03:43:06.325Z,0.00
2018-03-01T03:44:06.351Z,0.00
2018-03-01T03:45:06.241Z,0.00
2018-03-01T03:46:06.243Z,0.00
2018-03-01T03:47:06.167Z,0.00
2018-03-01T03:48:06.142Z,0.00
2018-03-01T03:49:06.096Z,0.00
2018-03-01T03:50:06.056Z,0.00
2018-03-01T03:51:06.024Z,0.00
2018-03-01T03:52:06.004Z,0.00
2018-03-01T03:53:05.978Z,0.00
2018-03-01T03:54:05.905Z,0.00
2018-03-01T03:55:05.910Z,0.00
2018-03-01T03:56:05.833Z,0.00
2018-03-01T03:57:05.851Z,0.00
2018-03-01T03:58:05.753Z,0.00
2018-03-01T03:59:05.779Z,0.00
2018-03-01T04:00:05.688Z,0.00
2018-03-01T04:01:05.646Z,0.00
2018-03-01T04:02:05.653Z,0.00
2018-03-01T04:03:05.589Z,0.00
2018-03-01T04:04:05.540Z,0.00
2018-03-01T04:05:05.511Z,0.00
2018-03-01T04:06:05.538Z,0.00
2018-03-01T04:07:05.432Z,0.00
2018-03-01T04:08:05.384Z,0.00
2018-03-01T04:09:05.344Z,0.00
2018-03-01T04:10:15.291Z,0.00
2018-03-01T04:12:07.676Z,0.00
2018-03-01T04:13:18.036Z,0.00
2018-03-01T04:15:02.220Z,0.00
2018-03-01T04:16:02.430Z,0.00
2018-03-01T04:18:05.951Z,0.00
2018-03-01T04:19:04.945Z,0.00
2018-03-01T04:21:09.766Z,0.00
2018-03-01T04:22:09.753Z,0.00
2018-03-01T04:24:06.269Z,0.00
2018-03-01T04:27:01.026Z,0.00
2018-03-01T04:28:02.071Z,0.00
2018-03-01T04:29:56.812Z,0.00
2018-03-01T04:30:57.773Z,0.00
2018-03-01T04:33:00.147Z,0.00
2018-03-01T04:34:01.080Z,0.00
2018-03-01T04:36:04.736Z,0.00
2018-03-01T04:37:04.892Z,0.00
2018-03-01T04:39:14.073Z,0.00
2018-03-01T04:40:14.950Z,0.00
2018-03-01T04:42:15.135Z,0.00
2018-03-01T04:43:15.132Z,0.00
2018-03-01T04:45:20.055Z,0.00
2018-03-01T04:46:20.035Z,0.00
2018-03-01T04:48:22.110Z,0.00
2018-03-01T04:49:21.904Z,0.00
2018-03-01T04:51:31.320Z,0.00
2018-03-01T04:52:31.703Z,0.00
2018-03-01T04:54:34.565Z,0.00
2018-03-01T04:55:35.604Z,0.00
2018-03-01T04:57:33.816Z,0.00
2018-03-01T04:58:33.839Z,0.00
2018-03-01T05:00:28.748Z,0.00
2018-03-01T05:01:29.129Z,0.00
2018-03-01T05:03:26.753Z,0.00
2018-03-01T05:04:27.088Z,0.00
2018-03-01T05:06:33.067Z,0.00
2018-03-01T05:07:33.987Z,0.00
2018-03-01T05:09:32.129Z,0.00
2018-03-01T05:10:33.665Z,0.00
2018-03-01T05:11:33.069Z,0.00
2018-03-01T05:12:33.036Z,0.00
2018-03-01T05:13:32.496Z,0.00
2018-03-01T05:14:33.311Z,0.00
2018-03-01T05:15:32.379Z,0.00
2018-03-01T05:16:31.847Z,0.00
2018-03-01T05:17:32.013Z,0.00
2018-03-01T05:18:32.306Z,0.00
2018-03-01T05:19:31.437Z,0.00
2018-03-01T05:20:31.297Z,0.00
2018-03-01T05:21:31.176Z,0.00
2018-03-01T05:22:31.199Z,0.00
2018-03-01T05:23:31.096Z,0.00
2018-03-01T05:24:31.073Z,0.00
2018-03-01T05:25:31.019Z,0.00
2018-03-01T05:26:31.081Z,0.00
2018-03-01T05:27:30.946Z,0.00
2018-03-01T05:28:30.950Z,0.00
2018-03-01T05:29:30.872Z,0.00
2018-03-01T05:30:30.843Z,0.00
2018-03-01T05:31:30.799Z,0.00
2018-03-01T05:32:30.766Z,0.00
2018-03-01T05:33:30.734Z,0.00
2018-03-01T05:34:30.690Z,0.00
2018-03-01T05:35:30.725Z,0.00
2018-03-01T05:36:30.687Z,0.00
2018-03-01T05:37:30.576Z,0.00
2018-03-01T05:38:30.531Z,0.00
2018-03-01T05:39:30.496Z,0.00
2018-03-01T05:40:30.462Z,0.00
2018-03-01T05:41:30.435Z,0.00
2018-03-01T05:42:30.382Z,0.00
2018-03-01T05:43:30.344Z,0.00
2018-03-01T05:44:30.324Z,0.00
2018-03-01T05:45:30.276Z,0.00
2018-03-01T05:46:30.237Z,0.00
2018-03-01T05:47:30.205Z,0.00
2018-03-01T05:48:30.169Z,0.00
2018-03-01T05:49:30.127Z,0.00
2018-03-01T05:50:30.132Z,0.00
2018-03-01T05:51:30.085Z,0.00
2018-03-01T05:52:30.016Z,0.00
2018-03-01T05:53:29.970Z,0.00
2018-03-01T05:54:29.941Z,0.00
2018-03-01T05:55:29.904Z,0.00
2018-03-01T05:56:29.870Z,0.00
2018-03-01T05:57:29.833Z,0.00
2018-03-01T05:58:29.878Z,0.00
2018-03-01T05:59:29.748Z,0.00
2018-03-01T06:00:29.712Z,0.00
2018-03-01T06:01:29.717Z,0.00
2018-03-01T06:02:29.646Z,0.00
2018-03-01T06:03:29.603Z,0.00
2018-03-01T06:04:29.573Z,0.00
2018-03-01T06:05:29.621Z,0.00
2018-03-01T06:06:29.498Z,0.00
2018-03-01T06:07:29.456Z,0.00
2018-03-01T06:08:29.484Z,0.00
2018-03-01T06:09:29.412Z,0.00
2018-03-01T06:10:29.383Z,0.00
2018-03-01T06:11:29.310Z,5.63
2018-03-01T06:12:29.265Z,5.63
2018-03-01T06:13:29.237Z,5.63
2018-03-01T06:14:29.204Z,5.63
2018-03-01T06:15:29.186Z,5.63
2018-03-01T06:16:29.124Z,5.63
2018-03-01T06:17:29.169Z,5.63
2018-03-01T06:18:29.063Z,5.63
2018-03-01T06:19:29.049Z,5.63
2018-03-01T06:20:28.972Z,11.25
2018-03-01T06:21:28.934Z,11.25
2018-03-01T06:22:28.943Z,11.25
2018-03-01T06:23:28.919Z,11.25
2018-03-01T06:24:28.823Z,11.25
2018-03-01T06:25:28.784Z,11.25
2018-03-01T06:26:28.744Z,11.25
2018-03-01T06:27:28.709Z,16.88
2018-03-01T06:28:28.668Z,16.88
2018-03-01T06:29:28.637Z,16.88
2018-03-01T06:30:28.601Z,16.88
2018-03-01T06:31:28.564Z,22.50
2018-03-01T06:32:28.536Z,22.50
2018-03-01T06:33:28.490Z,22.50
2018-03-01T06:34:28.446Z,22.50
2018-03-01T06:35:28.412Z,28.13
2018-03-01T06:36:28.371Z,28.13
2018-03-01T06:37:28.360Z,33.75
2018-03-01T06:38:28.333Z,33.75
2018-03-01T06:39:28.277Z,33.75
2018-03-01T06:40:28.231Z,39.38
2018-03-01T06:41:28.188Z,39.38
2018-03-01T06:42:28.157Z,39.38
2018-03-01T06:43:28.116Z,39.38
2018-03-01T06:44:28.084Z,45.00
2018-03-01T06:45:28.038Z,45.00
2018-03-01T06:46:28.005Z,45.00
2018-03-01T06:47:28.014Z,50.63
2018-03-01T06:48:27.929Z,50.63
2018-03-01T06:49:27.891Z,56.25
2018-03-01T06:50:27.858Z,56.25
2018-03-01T06:51:27.814Z,61.88
2018-03-01T06:52:27.882Z,61.88
2018-03-01T06:53:27.777Z,67.50
2018-03-01T06:54:27.866Z,67.50
2018-03-01T06:55:27.678Z,73.13
2018-03-01T06:56:27.643Z,73.13
2018-03-01T06:57:27.591Z,78.75
2018-03-01T06:58:27.627Z,78.75
2018-03-01T06:59:27.539Z,78.75
2018-03-01T07:00:27.523Z,84.38
2018-03-01T07:01:27.464Z,84.38
2018-03-01T07:02:27.421Z,90.00
2018-03-01T07:03:27.376Z,90.00
2018-03-01T07:04:27.332Z,95.63
2018-03-01T07:05:27.294Z,95.63
2018-03-01T07:06:27.257Z,101.25
2018-03-01T07:07:27.225Z,106.88
2018-03-01T07:08:27.190Z,112.50
2018-03-01T07:09:27.143Z,112.50
2018-03-01T07:10:27.107Z,118.13
2018-03-01T07:11:27.073Z,123.75
2018-03-01T07:12:27.031Z,123.75
2018-03-01T07:13:27.017Z,123.75
2018-03-01T07:14:26.970Z,129.38
2018-03-01T07:15:26.928Z,135.00
2018-03-01T07:16:26.891Z,135.00
2018-03-01T07:17:26.852Z,140.63
2018-03-01T07:18:26.819Z,140.63
2018-03-01T07:19:26.775Z,146.25
2018-03-01T07:20:26.793Z,146.25
2018-03-01T07:21:26.699Z,151.88
2018-03-01T07:22:26.723Z,151.88
2018-03-01T07:23:26.650Z,146.25
2018-03-01T07:24:26.623Z,151.88
2018-03-01T07:25:26.613Z,151.88
2018-03-01T07:26:26.515Z,157.50
2018-03-01T07:27:26.473Z,157.50
2018-03-01T07:28:26.439Z,163.13
2018-03-01T07:29:26.470Z,163.13
2018-03-01T07:30:26.369Z,168.75
2018-03-01T07:31:26.341Z,168.75
2018-03-01T07:32:26.303Z,168.75
2018-03-01T07:33:26.263Z,168.75
2018-03-01T07:34:26.284Z,174.38
2018-03-01T07:35:26.251Z,180.00
2018-03-01T07:36:26.144Z,174.38
2018-03-01T07:37:26.194Z,180.00
2018-03-01T07:38:26.094Z,180.00
2018-03-01T07:39:26.037Z,180.00
2018-03-01T07:40:26.002Z,185.63
2018-03-01T07:41:26.003Z,180.00
2018-03-01T07:42:26.017Z,185.63
2018-03-01T07:43:25.912Z,185.63
2018-03-01T07:44:25.992Z,185.63
2018-03-01T07:45:25.866Z,180.00
2018-03-01T07:46:52.064Z,180.00
2018-03-01T07:48:39.557Z,185.63
2018-03-01T07:49:31.096Z,185.63
2018-03-01T07:51:36.000Z,191.25
2018-03-01T07:54:31.476Z,202.50
2018-03-01T07:55:31.941Z,202.50
2018-03-01T07:57:36.175Z,213.75
2018-03-01T07:58:36.204Z,213.75
2018-03-01T08:00:32.535Z,230.63
2018-03-01T08:01:32.528Z,236.25
2018-03-01T08:03:44.426Z,247.50
2018-03-01T08:04:43.834Z,247.50
2018-03-01T08:05:44.806Z,241.88
2018-03-01T08:06:43.265Z,247.50
2018-03-01T08:07:43.822Z,258.75
2018-03-01T08:08:43.802Z,253.13
2018-03-01T08:09:43.820Z,258.75
2018-03-01T08:10:43.632Z,286.88
2018-03-01T08:11:43.084Z,281.25
2018-03-01T08:12:43.454Z,264.38
2018-03-01T08:13:43.833Z,275.63
2018-03-01T08:14:42.596Z,292.50
2018-03-01T08:15:42.581Z,275.63
2018-03-01T08:16:42.484Z,275.63
2018-03-01T08:17:42.357Z,286.88
2018-03-01T08:18:42.316Z,275.63
2018-03-01T08:19:42.288Z,275.63
2018-03-01T08:20:42.327Z,286.88
2018-03-01T08:21:42.207Z,286.88
2018-03-01T08:22:42.177Z,292.50
2018-03-01T08:23:42.141Z,298.13
2018-03-01T08:24:42.108Z,303.75
2018-03-01T08:25:42.069Z,303.75
2018-03-01T08:26:42.029Z,315.00
2018-03-01T08:27:41.993Z,303.75
2018-03-01T08:28:41.968Z,309.38
2018-03-01T08:29:41.922Z,320.63
2018-03-01T08:30:41.887Z,309.38
2018-03-01T08:31:41.846Z,337.50
2018-03-01T08:32:41.817Z,326.25
2018-03-01T08:33:41.778Z,320.63
2018-03-01T08:34:41.757Z,331.88
2018-03-01T08:35:41.707Z,337.50
2018-03-01T08:36:41.678Z,343.13
2018-03-01T08:37:41.635Z,348.75
2018-03-01T08:38:41.599Z,360.00
2018-03-01T08:39:41.566Z,354.38
2018-03-01T08:40:41.528Z,343.13
2018-03-01T08:41:41.502Z,343.13
2018-03-01T08:42:41.451Z,348.75
2018-03-01T08:43:41.422Z,348.75
2018-03-01T08:44:41.377Z,354.38
2018-03-01T08:45:41.421Z,337.50
2018-03-01T08:46:41.308Z,343.13
2018-03-01T08:47:41.269Z,331.88
2018-03-01T08:48:41.284Z,331.88
2018-03-01T08:49:41.359Z,326.25
2018-03-01T08:50:41.166Z,320.63
2018-03-01T08:51:41.142Z,320.63
2018-03-01T08:52:41.094Z,320.63
2018-03-01T08:53:41.060Z,326.25
2018-03-01T08:54:41.082Z,320.63
2018-03-01T08:55:41.085Z,320.63
2018-03-01T08:56:41.032Z,320.63
2018-03-01T08:57:40.916Z,320.63
2018-03-01T08:58:40.887Z,315.00
2018-03-01T08:59:40.844Z,309.38
2018-03-01T09:00:40.808Z,303.75
2018-03-01T09:01:40.894Z,298.13
2018-03-01T09:02:40.731Z,298.13
2018-03-01T09:03:40.698Z,315.00
2018-03-01T09:04:40.677Z,331.88
2018-03-01T09:05:40.630Z,315.00
2018-03-01T09:06:40.598Z,331.88
2018-03-01T09:07:40.561Z,326.25
2018-03-01T09:08:40.523Z,337.50
2018-03-01T09:09:40.490Z,315.00
2018-03-01T09:10:40.452Z,337.50
2018-03-01T09:11:40.434Z,315.00
2018-03-01T09:12:40.410Z,315.00
2018-03-01T09:13:40.353Z,303.75
2018-03-01T09:14:40.414Z,315.00
2018-03-01T09:15:40.345Z,303.75
2018-03-01T09:16:40.246Z,286.88
2018-03-01T09:17:40.232Z,286.88
2018-03-01T09:18:40.242Z,286.88
2018-03-01T09:19:40.130Z,292.50
2018-03-01T09:20:40.110Z,286.88
2018-03-01T09:21:40.054Z,270.00
2018-03-01T09:22:40.023Z,258.75
2018-03-01T09:23:39.987Z,253.13
2018-03-01T09:24:39.980Z,258.75
2018-03-01T09:25:39.923Z,270.00
2018-03-01T09:26:39.876Z,286.88
2018-03-01T09:27:39.851Z,270.00
2018-03-01T09:28:39.807Z,270.00
2018-03-01T09:29:39.779Z,309.38
2018-03-01T09:30:39.739Z,309.38
2018-03-01T09:31:39.710Z,315.00
2018-03-01T09:32:39.697Z,315.00
2018-03-01T09:33:39.632Z,326.25
2018-03-01T09:34:39.594Z,315.00
2018-03-01T09:35:39.562Z,303.75
2018-03-01T09:36:39.527Z,298.13
2018-03-01T09:37:39.531Z,331.88
2018-03-01T09:38:39.464Z,337.50
2018-03-01T09:39:39.439Z,337.50
2018-03-01T09:40:39.376Z,337.50
2018-03-01T09:41:39.351Z,337.50
2018-03-01T09:42:39.338Z,343.13
2018-03-01T09:43:39.271Z,348.75
2018-03-01T09:44:39.291Z,348.75
2018-03-01T09:45:39.203Z,354.38
2018-03-01T09:46:39.180Z,354.38
2018-03-01T09:47:39.130Z,360.00
2018-03-01T09:48:39.107Z,360.00
2018-03-01T09:49:39.098Z,365.63
2018-03-01T09:50:39.035Z,371.25
2018-03-01T09:51:39.115Z,371.25
2018-03-01T09:52:38.954Z,371.25
2018-03-01T09:53:38.920Z,371.25
2018-03-01T09:54:38.920Z,360.00
2018-03-01T09:55:38.846Z,371.25
2018-03-01T09:56:38.826Z,360.00
2018-03-01T09:57:38.776Z,360.00
2018-03-01T09:58:38.746Z,354.38
2018-03-01T09:59:38.701Z,354.38
2018-03-01T10:00:38.672Z,354.38
2018-03-01T10:01:38.717Z,365.63
2018-03-01T10:02:38.605Z,365.63
2018-03-01T10:03:38.568Z,376.88
2018-03-01T10:04:38.534Z,382.50
2018-03-01T10:05:38.496Z,382.50
2018-03-01T10:06:38.462Z,382.50
2018-03-01T10:07:38.445Z,382.50
2018-03-01T10:08:38.389Z,382.50
2018-03-01T10:09:38.360Z,388.13
2018-03-01T10:10:38.323Z,388.13
2018-03-01T10:11:38.329Z,388.13
2018-03-01T10:12:38.246Z,388.13
2018-03-01T10:13:38.210Z,382.50
2018-03-01T10:14:38.173Z,382.50
2018-03-01T10:15:38.151Z,371.25
2018-03-01T10:16:38.164Z,371.25
2018-03-01T10:17:38.070Z,376.88
2018-03-01T10:18:38.049Z,376.88
2018-03-01T10:19:38.003Z,388.13
2018-03-01T10:20:37.981Z,393.75
2018-03-01T10:21:37.947Z,399.38
2018-03-01T10:22:37.911Z,405.00
2018-03-01T10:23:37.917Z,410.63
2018-03-01T10:24:37.844Z,410.63
2018-03-01T10:25:37.806Z,416.25
2018-03-01T10:26:37.774Z,421.88
2018-03-01T10:27:37.731Z,421.88
2018-03-01T10:28:37.735Z,421.88
2018-03-01T10:29:37.651Z,438.75
2018-03-01T10:30:37.621Z,438.75
2018-03-01T10:31:37.647Z,444.38
2018-03-01T10:32:37.559Z,450.00
2018-03-01T10:33:37.526Z,455.63
2018-03-01T10:34:37.480Z,461.25
2018-03-01T10:35:37.453Z,466.88
2018-03-01T10:36:37.410Z,455.63
2018-03-01T10:37:37.375Z,478.13
2018-03-01T10:38:37.391Z,489.38
2018-03-01T10:39:37.307Z,495.00
2018-03-01T10:40:37.278Z,489.38
2018-03-01T10:41:37.239Z,500.63
2018-03-01T10:42:37.214Z,500.63
2018-03-01T10:43:37.329Z,506.25
2018-03-01T10:44:37.138Z,472.50
2018-03-01T10:45:37.120Z,495.00
2018-03-01T10:46:37.073Z,500.63
2018-03-01T10:47:37.035Z,483.75
2018-03-01T10:48:37.002Z,472.50
2018-03-01T10:49:36.974Z,489.38
2018-03-01T10:50:37.038Z,500.63
2018-03-01T10:51:36.902Z,528.75
2018-03-01T10:52:36.860Z,568.13
2018-03-01T10:53:36.826Z,562.50
2018-03-01T10:54:36.801Z,528.75
2018-03-01T10:55:36.756Z,540.00
2018-03-01T10:56:36.727Z,545.63
2018-03-01T10:57:36.696Z,562.50
2018-03-01T10:58:36.662Z,562.50
2018-03-01T10:59:36.656Z,528.75
2018-03-01T11:00:36.595Z,506.25
2018-03-01T11:01:36.581Z,534.38
2018-03-01T11:02:36.624Z,551.25
2018-03-01T11:03:36.494Z,573.75
2018-03-01T11:04:36.455Z,545.63
2018-03-01T11:05:36.422Z,579.38
2018-03-01T11:06:36.381Z,585.00
2018-03-01T11:07:36.471Z,579.38
2018-03-01T11:08:36.313Z,585.00
2018-03-01T11:09:36.391Z,596.25
2018-03-01T11:10:36.250Z,585.00
2018-03-01T11:11:37.903Z,585.00
2018-03-01T11:12:36.184Z,585.00
2018-03-01T11:13:36.162Z,579.38
2018-03-01T11:14:36.116Z,585.00
2018-03-01T11:15:36.083Z,568.13
2018-03-01T11:16:36.048Z,556.88
2018-03-01T11:17:36.023Z,568.13
2018-03-01T11:18:35.991Z,545.63
2018-03-01T11:19:35.955Z,562.50
2018-03-01T11:20:35.928Z,562.50
2018-03-01T11:21:35.884Z,573.75
2018-03-01T11:22:35.845Z,585.00
2018-03-01T11:23:35.825Z,596.25
2018-03-01T11:24:35.793Z,596.25
2018-03-01T11:25:35.774Z,601.88
2018-03-01T11:26:35.716Z,613.13
2018-03-01T11:27:35.690Z,607.50
2018-03-01T11:28:35.785Z,601.88
2018-03-01T11:29:35.612Z,635.63
2018-03-01T11:30:37.409Z,652.50
2018-03-01T11:31:35.549Z,663.75
2018-03-01T11:32:35.518Z,646.88
2018-03-01T11:33:35.510Z,641.25
2018-03-01T11:34:35.572Z,663.75
2018-03-01T11:35:35.486Z,658.13
2018-03-01T11:36:35.380Z,658.13
2018-03-01T11:37:35.453Z,658.13
2018-03-01T11:38:35.488Z,675.00
2018-03-01T11:39:35.287Z,669.38
2018-03-01T11:40:35.256Z,675.00
2018-03-01T11:41:35.219Z,691.88
2018-03-01T11:42:35.186Z,703.13
2018-03-01T11:43:35.222Z,708.75
2018-03-01T11:44:35.192Z,680.63
2018-03-01T11:45:35.093Z,663.75
2018-03-01T11:46:35.064Z,675.00
2018-03-01T11:47:35.089Z,691.88
2018-03-01T11:48:34.991Z,697.50
2018-03-01T11:49:34.965Z,697.50
2018-03-01T11:50:34.927Z,720.00
2018-03-01T11:51:34.963Z,736.88
2018-03-01T11:52:34.866Z,748.13
2018-03-01T11:53:34.897Z,742.50
2018-03-01T11:54:34.800Z,720.00
2018-03-01T11:55:34.768Z,720.00
2018-03-01T11:56:34.743Z,748.13
2018-03-01T11:57:34.704Z,753.75
2018-03-01T11:58:34.677Z,742.50
2018-03-01T11:59:34.644Z,742.50
2018-03-01T12:00:34.633Z,742.50
2018-03-01T12:01:34.579Z,770.63
2018-03-01T12:02:34.558Z,776.25
2018-03-01T12:03:34.693Z,804.38
2018-03-01T12:04:34.634Z,832.50
2018-03-01T12:05:34.454Z,849.38
2018-03-01T12:06:34.468Z,849.38
2018-03-01T12:07:34.395Z,849.38
2018-03-01T12:08:36.947Z,883.13
2018-03-01T12:09:34.341Z,905.63
2018-03-01T12:10:34.546Z,916.88
2018-03-01T12:11:34.272Z,933.75
2018-03-01T12:12:34.248Z,961.88
2018-03-01T12:13:34.232Z,973.13
2018-03-01T12:14:34.200Z,990.00
2018-03-01T12:15:34.154Z,1023.75
2018-03-01T12:16:34.137Z,1012.50
2018-03-01T12:17:34.091Z,905.63
2018-03-01T12:18:34.112Z,933.75
2018-03-01T12:19:34.034Z,1023.75
2018-03-01T12:20:34.213Z,1085.63
2018-03-01T12:21:33.978Z,1108.13
2018-03-01T12:22:33.939Z,1040.63
2018-03-01T12:23:33.911Z,1096.88
2018-03-01T12:24:33.907Z,1147.50
2018-03-01T12:25:33.851Z,1209.38
2018-03-01T12:26:33.827Z,1164.38
2018-03-01T12:27:33.806Z,1248.75
2018-03-01T12:28:33.769Z,1490.63
2018-03-01T12:29:33.736Z,1423.13
2018-03-01T12:30:33.709Z,2250.00
2018-03-01T12:31:33.778Z,1923.75
2018-03-01T12:32:33.660Z,1800.00
2018-03-01T12:33:33.676Z,2058.75
2018-03-01T12:34:33.586Z,1923.75
2018-03-01T12:35:35.438Z,2396.25
2018-03-01T12:36:33.561Z,1923.75
2018-03-01T12:37:33.503Z,1788.75
2018-03-01T12:38:33.466Z,2424.38
2018-03-01T12:39:33.442Z,2480.63
2018-03-01T12:40:33.442Z,2148.75
2018-03-01T12:41:33.370Z,2283.75
2018-03-01T12:42:33.362Z,2244.38
2018-03-01T12:43:33.321Z,2317.50
2018-03-01T12:44:33.295Z,2210.63
2018-03-01T12:45:33.260Z,2446.88
2018-03-01T12:46:33.249Z,2030.63
2018-03-01T12:47:33.226Z,2340.00
2018-03-01T12:48:33.172Z,2548.13
2018-03-01T12:49:33.151Z,2790.00
2018-03-01T12:50:33.103Z,2148.75
2018-03-01T12:51:33.074Z,2244.38
2018-03-01T12:52:33.046Z,2896.88
2018-03-01T12:53:33.017Z,1783.13
2018-03-01T12:54:32.989Z,1710.00
2018-03-01T12:55:32.964Z,2115.00
2018-03-01T12:56:32.951Z,2193.75
2018-03-01T12:57:32.975Z,2503.13
2018-03-01T12:58:32.889Z,2801.25
2018-03-01T12:59:32.848Z,2784.38
2018-03-01T13:00:32.820Z,3240.00
2018-03-01T13:01:32.790Z,3054.38
2018-03-01T13:02:32.756Z,2925.00
2018-03-01T13:03:32.775Z,3549.38
2018-03-01T13:04:32.735Z,3211.88
2018-03-01T13:05:32.682Z,2773.13
2018-03-01T13:06:35.451Z,3065.63
2018-03-01T13:07:32.634Z,3228.75
2018-03-01T13:08:32.592Z,3161.25
2018-03-01T13:09:32.557Z,2913.75
2018-03-01T13:10:32.528Z,2407.50
2018-03-01T13:11:32.555Z,2154.38
2018-03-01T13:12:32.472Z,2137.50
2018-03-01T13:13:32.446Z,2120.63
2018-03-01T13:14:32.424Z,1968.75
2018-03-01T13:15:32.398Z,2182.50
2018-03-01T13:16:32.372Z,2008.13
2018-03-01T13:17:32.353Z,2070.00
2018-03-01T13:18:32.319Z,2193.75